createdAt,value
2019-05-05T00:02:05.154Z,99274.95
2019-05-05T00:04:40.909Z,99269.37
2019-05-05T00:07:14.935Z,99273.03
2019-05-05T00:09:46.569Z,99268.98
2019-05-05T00:12:34.325Z,99270.39
2019-05-05T00:15:12.103Z,99276.11
2019-05-05T00:17:44.993Z,99279.50
2019-05-05T00:20:16.827Z,99275.20
2019-05-05T00:22:48.723Z,99283.08
2019-05-05T00:25:20.356Z,99279.53
2019-05-05T00:27:52.128Z,99278.78
2019-05-05T00:30:24.901Z,99275.97
2019-05-05T00:32:56.674Z,99277.73
2019-05-05T00:35:28.410Z,99276.75
2019-05-05T00:38:00.474Z,99276.73
2019-05-05T00:40:32.437Z,99280.55
2019-05-05T00:43:05.350Z,99275.97
2019-05-05T00:45:38.558Z,99277.75
2019-05-05T00:48:20.960Z,99266.11
2019-05-05T00:50:52.786Z,99273.03
2019-05-05T00:53:25.053Z,99278.22
2019-05-05T00:55:56.729Z,99282.16
2019-05-05T00:58:30.206Z,99287.09
2019-05-05T01:01:19.523Z,99282.66
2019-05-05T01:03:51.422Z,99292.35
2019-05-05T01:06:27.540Z,99289.45
2019-05-05T01:08:59.048Z,99286.52
2019-05-05T01:11:30.937Z,99276.75
2019-05-05T01:14:04.948Z,99286.75
2019-05-05T01:16:35.956Z,99286.38
2019-05-05T01:19:07.645Z,99292.84
2019-05-05T01:21:39.187Z,99289.80
2019-05-05T01:24:11.039Z,99289.68
2019-05-05T01:26:44.611Z,99286.90
2019-05-05T01:29:16.287Z,99289.57
2019-05-05T01:31:48.040Z,99292.33
2019-05-05T01:34:27.099Z,99290.53
2019-05-05T01:37:00.382Z,99291.41
2019-05-05T01:39:34.539Z,99292.04
2019-05-05T01:42:14.430Z,99289.25
2019-05-05T01:44:46.416Z,99297.98
2019-05-05T01:47:17.971Z,99301.23
2019-05-05T01:49:49.727Z,99305.30
2019-05-05T01:52:21.561Z,99296.33
2019-05-05T01:54:54.948Z,99305.38
2019-05-05T01:57:27.426Z,99306.77
2019-05-05T01:59:59.149Z,99314.27
2019-05-05T02:02:31.159Z,99306.03
2019-05-05T02:05:04.660Z,99311.49
2019-05-05T02:07:36.422Z,99311.59
2019-05-05T02:10:09.018Z,99312.44
2019-05-05T02:12:40.936Z,99310.85
2019-05-05T02:15:14.718Z,99313.23
2019-05-05T02:17:45.902Z,99321.42
2019-05-05T02:20:38.643Z,99314.10
2019-05-05T02:23:12.279Z,99326.56
2019-05-05T02:25:44.748Z,99325.02
2019-05-05T02:28:16.572Z,99323.27
2019-05-05T02:31:05.721Z,99324.55
2019-05-05T02:33:37.465Z,99332.27
2019-05-05T02:36:09.271Z,99335.36
2019-05-05T02:38:41.249Z,99338.91
2019-05-05T02:41:15.444Z,99334.33
2019-05-05T02:43:47.491Z,99331.55
2019-05-05T02:46:21.486Z,99331.34
2019-05-05T02:48:56.248Z,99338.05
2019-05-05T02:51:29.336Z,99340.56
2019-05-05T02:54:04.547Z,99339.95
2019-05-05T02:56:43.631Z,99342.73
2019-05-05T02:59:20.172Z,99349.59
2019-05-05T03:01:54.471Z,99341.52
2019-05-05T03:04:27.836Z,99352.78
2019-05-05T03:07:04.563Z,99349.48
2019-05-05T03:09:36.660Z,99350.89
2019-05-05T03:12:11.078Z,99347.37
2019-05-05T03:14:45.442Z,99344.48
2019-05-05T03:17:17.619Z,99350.05
2019-05-05T03:19:50.287Z,99358.94
2019-05-05T03:22:23.712Z,99355.16
2019-05-05T03:24:55.378Z,99360.01
2019-05-05T03:27:27.506Z,99365.69
2019-05-05T03:29:59.742Z,99367.89
2019-05-05T03:32:32.028Z,99367.42
2019-05-05T03:35:04.390Z,99367.02
2019-05-05T03:37:36.488Z,99369.45
2019-05-05T03:40:09.599Z,99377.58
2019-05-05T03:42:44.272Z,99377.06
2019-05-05T03:45:18.541Z,99380.26
2019-05-05T03:47:50.901Z,99384.73
2019-05-05T03:50:23.768Z,99381.95
2019-05-05T03:52:55.549Z,99388.33
2019-05-05T03:55:27.676Z,99392.42
2019-05-05T03:57:59.435Z,99392.72
2019-05-05T04:00:51.180Z,99388.82
2019-05-05T04:03:23.725Z,99395.92
2019-05-05T04:05:59.917Z,99397.60
2019-05-05T04:08:33.779Z,99401.69
2019-05-05T04:11:05.184Z,99409.91
2019-05-05T04:13:37.089Z,99414.50
2019-05-05T04:16:13.692Z,99421.48
2019-05-05T04:18:50.846Z,99423.02
2019-05-05T04:21:31.340Z,99423.16
2019-05-05T04:23:55.860Z,99417.17
2019-05-05T04:26:27.702Z,99420.47
2019-05-05T04:29:02.271Z,99425.55
2019-05-05T04:31:34.613Z,99427.73
2019-05-05T04:34:06.146Z,99431.77
2019-05-05T04:36:37.924Z,99434.58
2019-05-05T04:39:09.477Z,99440.13
2019-05-05T04:41:41.330Z,99443.69
2019-05-05T04:44:14.838Z,99440.91
2019-05-05T04:46:48.149Z,99443.95
2019-05-05T04:49:23.530Z,99442.31
2019-05-05T04:51:56.842Z,99440.92
2019-05-05T04:54:33.484Z,99441.80
2019-05-05T04:57:05.151Z,99438.98
2019-05-05T04:59:36.618Z,99447.34
2019-05-05T05:02:10.046Z,99446.19
2019-05-05T05:04:53.566Z,99450.23
2019-05-05T05:07:26.030Z,99442.79
2019-05-05T05:09:57.575Z,99449.73
2019-05-05T05:12:29.441Z,99450.84
2019-05-05T05:15:01.105Z,99447.73
2019-05-05T05:17:34.609Z,99442.70
2019-05-05T05:20:07.802Z,99436.05
2019-05-05T05:22:39.264Z,99434.31
2019-05-05T05:25:13.451Z,99451.25
2019-05-05T05:27:44.792Z,99446.41
2019-05-05T05:30:17.062Z,99445.72
2019-05-05T05:32:48.616Z,99450.61
2019-05-05T05:35:20.167Z,99454.71
2019-05-05T05:37:54.297Z,99452.50
2019-05-05T05:40:39.556Z,99447.49
2019-05-05T05:43:13.934Z,99459.86
2019-05-05T05:46:04.265Z,99462.70
2019-05-05T05:48:46.060Z,99455.47
2019-05-05T05:51:19.565Z,99460.53
2019-05-05T05:53:51.209Z,99460.45
2019-05-05T05:56:24.988Z,99466.73
2019-05-05T05:58:57.233Z,99465.55
2019-05-05T06:01:29.097Z,99465.73
2019-05-05T06:04:00.634Z,99479.39
2019-05-05T06:06:34.599Z,99476.75
2019-05-05T06:09:06.762Z,99470.05
2019-05-05T06:11:38.351Z,99464.69
2019-05-05T06:14:10.198Z,99463.56
2019-05-05T06:16:41.977Z,99460.92
2019-05-05T06:19:14.060Z,99463.14
2019-05-05T06:21:45.906Z,99468.25
2019-05-05T06:24:17.744Z,99470.13
2019-05-05T06:26:49.689Z,99469.39
2019-05-05T06:29:23.798Z,99465.95
2019-05-05T06:31:55.091Z,99468.21
2019-05-05T06:34:26.754Z,99471.78
2019-05-05T06:36:58.907Z,99471.70
2019-05-05T06:39:30.631Z,99476.08
2019-05-05T06:42:04.537Z,99476.20
2019-05-05T06:44:41.738Z,99478.23
2019-05-05T06:47:15.137Z,99480.06
2019-05-05T06:49:46.699Z,99488.72
2019-05-05T06:52:18.553Z,99480.71
2019-05-05T06:54:50.184Z,99482.53
2019-05-05T06:57:23.606Z,99486.52
2019-05-05T06:59:55.132Z,99476.33
2019-05-05T07:02:27.008Z,99486.80
2019-05-05T07:04:58.568Z,99482.14
2019-05-05T07:07:30.327Z,99480.71
2019-05-05T07:10:03.771Z,99496.44
2019-05-05T07:12:35.732Z,99480.92
2019-05-05T07:15:08.301Z,99489.87
2019-05-05T07:17:39.800Z,99492.66
2019-05-05T07:20:13.600Z,99485.34
2019-05-05T07:22:58.042Z,99487.36
2019-05-05T07:25:18.339Z,99487.27
2019-05-05T07:27:50.197Z,99485.95
2019-05-05T07:30:24.192Z,99496.52
2019-05-05T07:32:55.398Z,99480.70
2019-05-05T07:35:56.808Z,99483.77
2019-05-05T07:38:20.009Z,99484.15
2019-05-05T07:40:51.616Z,99479.12
2019-05-05T07:43:24.041Z,99476.70
2019-05-05T07:45:55.648Z,99483.30
2019-05-05T07:48:27.333Z,99481.38
2019-05-05T07:51:02.361Z,99480.73
2019-05-05T07:53:33.518Z,99476.13
2019-05-05T07:56:07.632Z,99482.59
2019-05-05T07:58:39.482Z,99492.14
2019-05-05T08:01:11.103Z,99480.73
2019-05-05T08:03:44.550Z,99480.55
2019-05-05T08:06:17.322Z,99480.69
2019-05-05T08:08:49.058Z,99481.45
2019-05-05T08:11:20.692Z,99489.84
2019-05-05T08:13:54.592Z,99479.11
2019-05-05T08:16:27.299Z,99484.48
2019-05-05T08:19:00.397Z,99483.34
2019-05-05T08:21:32.068Z,99476.66
2019-05-05T08:24:05.758Z,99476.75
2019-05-05T08:26:41.641Z,99466.35
2019-05-05T08:29:34.523Z,99475.50
2019-05-05T08:32:23.825Z,99476.17
2019-05-05T08:35:00.518Z,99469.73
2019-05-05T08:37:28.792Z,99477.75
2019-05-05T08:40:00.431Z,99466.14
2019-05-05T08:42:33.894Z,99463.20
2019-05-05T08:45:06.705Z,99462.94
2019-05-05T08:47:38.154Z,99469.47
2019-05-05T08:50:10.098Z,99462.41
2019-05-05T08:52:41.652Z,99459.91
2019-05-05T08:55:14.038Z,99460.59
2019-05-05T08:57:45.781Z,99465.58
2019-05-05T09:00:17.661Z,99465.08
2019-05-05T09:02:49.397Z,99463.98
2019-05-05T09:05:21.259Z,99452.02
2019-05-05T09:07:54.756Z,99445.69
2019-05-05T09:10:26.443Z,99451.62
2019-05-05T09:12:58.166Z,99453.69
2019-05-05T09:15:30.330Z,99455.27
2019-05-05T09:18:04.807Z,99459.92
2019-05-05T09:20:35.807Z,99450.48
2019-05-05T09:23:07.554Z,99454.95
2019-05-05T09:25:49.756Z,99464.27
2019-05-05T09:28:26.063Z,99441.73
2019-05-05T09:30:58.291Z,99440.80
2019-05-05T09:33:30.275Z,99435.98
2019-05-05T09:36:04.678Z,99439.05
2019-05-05T09:38:36.250Z,99433.41
2019-05-05T09:41:07.773Z,99433.88
2019-05-05T09:43:39.551Z,99440.14
2019-05-05T09:46:11.421Z,99452.25
2019-05-05T09:48:44.037Z,99443.72
2019-05-05T09:51:15.721Z,99455.92
2019-05-05T09:53:47.483Z,99432.31
2019-05-05T09:56:19.454Z,99438.77
2019-05-05T09:58:51.306Z,99440.44
2019-05-05T10:01:24.568Z,99452.96
2019-05-05T10:03:57.921Z,99431.84
2019-05-05T10:06:29.676Z,99433.76
2019-05-05T10:09:01.405Z,99424.47
2019-05-05T10:11:35.377Z,99429.48
2019-05-05T10:14:07.763Z,99424.30
2019-05-05T10:16:39.363Z,99419.97
2019-05-05T10:19:10.892Z,99424.06
2019-05-05T10:21:44.378Z,99418.20
2019-05-05T10:24:30.156Z,99414.05
2019-05-05T10:26:58.386Z,99409.97
2019-05-05T10:29:28.417Z,99420.22
2019-05-05T10:32:00.145Z,99420.94
2019-05-05T10:34:33.498Z,99403.94
2019-05-05T10:37:05.069Z,99405.55
2019-05-05T10:39:38.197Z,99399.08
2019-05-05T10:42:09.720Z,99404.38
2019-05-05T10:44:41.271Z,99404.98
2019-05-05T10:47:13.724Z,99410.11
2019-05-05T10:49:45.429Z,99411.08
2019-05-05T10:52:17.255Z,99392.28
2019-05-05T10:54:49.219Z,99395.83
2019-05-05T10:57:20.977Z,99397.95
2019-05-05T10:59:53.946Z,99379.98
2019-05-05T11:02:25.823Z,99393.70
2019-05-05T11:04:57.307Z,99385.27
2019-05-05T11:07:29.139Z,99385.79
2019-05-05T11:10:00.949Z,99387.92
2019-05-05T11:12:33.758Z,99385.25
2019-05-05T11:15:07.353Z,99381.16
2019-05-05T11:17:38.828Z,99395.02
2019-05-05T11:20:14.313Z,99384.75
2019-05-05T11:22:45.742Z,99378.05
2019-05-05T11:25:19.197Z,99379.14
2019-05-05T11:27:51.189Z,99381.59
2019-05-05T11:30:37.702Z,99379.72
2019-05-05T11:33:27.055Z,99374.63
2019-05-05T11:36:01.035Z,99379.91
2019-05-05T11:38:33.837Z,99362.22
2019-05-05T11:41:06.161Z,99372.03
2019-05-05T11:43:37.766Z,99365.38
2019-05-05T11:46:10.944Z,99381.88
2019-05-05T11:48:43.871Z,99359.09
2019-05-05T11:51:15.629Z,99357.41
2019-05-05T11:53:47.363Z,99364.52
2019-05-05T11:56:19.062Z,99345.84
2019-05-05T11:58:50.725Z,99351.36
2019-05-05T12:01:24.287Z,99355.18
2019-05-05T12:03:56.029Z,99354.48
2019-05-05T12:06:27.801Z,99351.23
2019-05-05T12:09:01.401Z,99345.97
2019-05-05T12:11:34.628Z,99344.16
2019-05-05T12:14:07.981Z,99341.89
2019-05-05T12:16:40.178Z,99340.61
2019-05-05T12:19:13.689Z,99337.91
2019-05-05T12:21:45.452Z,99321.61
2019-05-05T12:24:19.945Z,99316.33
2019-05-05T12:26:54.257Z,99321.38
2019-05-05T12:29:26.830Z,99317.47
2019-05-05T12:31:58.607Z,99323.66
2019-05-05T12:34:30.155Z,99304.85
2019-05-05T12:37:02.411Z,99306.73
2019-05-05T12:39:33.966Z,99308.98
2019-05-05T12:42:05.725Z,99306.60
2019-05-05T12:44:39.205Z,99298.95
2019-05-05T12:47:14.354Z,99296.38
2019-05-05T12:49:45.612Z,99298.39
2019-05-05T12:52:17.187Z,99304.09
2019-05-05T12:54:48.701Z,99302.50
2019-05-05T12:57:20.667Z,99303.86
2019-05-05T12:59:53.685Z,99289.85
2019-05-05T13:02:25.422Z,99288.37
2019-05-05T13:04:56.982Z,99296.47
2019-05-05T13:07:28.732Z,99289.12
2019-05-05T13:10:00.461Z,99279.27
2019-05-05T13:12:34.350Z,99278.11
2019-05-05T13:15:07.077Z,99282.03
2019-05-05T13:17:38.568Z,99292.83
2019-05-05T13:20:19.775Z,99286.39
2019-05-05T13:23:11.735Z,99291.31
2019-05-05T13:26:00.320Z,99292.07
2019-05-05T13:28:34.295Z,99292.79
2019-05-05T13:31:05.646Z,99287.18
2019-05-05T13:33:37.616Z,99288.81
2019-05-05T13:36:09.459Z,99290.56
2019-05-05T13:38:41.299Z,99294.38
2019-05-05T13:41:13.190Z,99288.95
2019-05-05T13:43:46.075Z,99274.70
2019-05-05T13:46:19.440Z,99272.98
2019-05-05T13:48:51.145Z,99268.39
2019-05-05T13:51:24.013Z,99270.22
2019-05-05T13:53:55.717Z,99284.45
2019-05-05T13:56:27.441Z,99269.05
2019-05-05T13:58:59.166Z,99267.90
2019-05-05T14:01:30.799Z,99269.48
2019-05-05T14:04:04.495Z,99267.80
2019-05-05T14:06:35.856Z,99275.11
2019-05-05T14:09:08.439Z,99268.46
2019-05-05T14:11:41.626Z,99266.63
2019-05-05T14:14:13.918Z,99266.25
2019-05-05T14:16:45.826Z,99294.10
2019-05-05T14:19:17.736Z,99276.64
2019-05-05T14:21:49.547Z,99270.70
2019-05-05T14:24:23.126Z,99274.80
2019-05-05T14:26:55.073Z,99279.80
2019-05-05T14:29:47.191Z,99285.63
2019-05-05T14:32:20.579Z,99280.11
2019-05-05T14:34:56.455Z,99280.59
2019-05-05T14:37:38.212Z,99272.59
2019-05-05T14:40:10.587Z,99273.05
2019-05-05T14:42:43.490Z,99270.70
2019-05-05T14:45:15.943Z,99284.36
2019-05-05T14:47:47.518Z,99261.75
2019-05-05T14:50:19.559Z,99269.22
2019-05-05T14:52:53.365Z,99273.92
2019-05-05T14:55:25.565Z,99262.15
2019-05-05T14:57:57.901Z,99255.17
2019-05-05T15:00:30.601Z,99280.70
2019-05-05T15:03:03.675Z,99251.03
2019-05-05T15:05:54.765Z,99241.69
2019-05-05T15:08:44.323Z,99243.38
2019-05-05T15:11:34.030Z,99249.13
2019-05-05T15:14:06.955Z,99240.22
2019-05-05T15:16:38.712Z,99242.27
2019-05-05T15:19:11.448Z,99243.78
2019-05-05T15:21:44.266Z,99240.75
2019-05-05T15:24:15.904Z,99245.34
2019-05-05T15:26:51.818Z,99248.25
2019-05-05T15:29:21.353Z,99245.90
2019-05-05T15:31:53.940Z,99245.27
2019-05-05T15:34:25.719Z,99248.79
2019-05-05T15:36:57.522Z,99241.61
2019-05-05T15:39:29.226Z,99238.20
2019-05-05T15:42:01.032Z,99236.61
2019-05-05T15:44:34.445Z,99220.34
2019-05-05T15:47:06.150Z,99231.87
2019-05-05T15:49:37.943Z,99235.86
2019-05-05T15:52:09.956Z,99222.02
2019-05-05T15:54:41.794Z,99225.81
2019-05-05T15:57:14.839Z,99230.08
2019-05-05T15:59:46.709Z,99230.31
2019-05-05T16:02:18.430Z,99224.70
2019-05-05T16:04:51.203Z,99225.13
2019-05-05T16:07:24.248Z,99218.41
2019-05-05T16:09:55.925Z,99229.09
2019-05-05T16:12:34.133Z,99222.20
2019-05-05T16:15:05.889Z,99227.52
2019-05-05T16:17:39.305Z,99231.76
2019-05-05T16:20:24.979Z,99219.14
2019-05-05T16:22:58.307Z,99222.19
2019-05-05T16:25:29.818Z,99227.09
2019-05-05T16:28:05.394Z,99230.67
2019-05-05T16:30:35.077Z,99232.59
2019-05-05T16:33:06.995Z,99226.55
2019-05-05T16:35:38.614Z,99237.13
2019-05-05T16:38:10.344Z,99226.30
2019-05-05T16:40:44.306Z,99227.99
2019-05-05T16:43:16.836Z,99224.98
2019-05-05T16:45:48.381Z,99228.20
2019-05-05T16:48:20.158Z,99228.30
2019-05-05T16:50:54.033Z,99219.92
2019-05-05T16:53:40.155Z,99219.23
2019-05-05T16:56:14.136Z,99216.00
2019-05-05T16:58:45.757Z,99216.55
2019-05-05T17:01:17.693Z,99214.66
2019-05-05T17:03:49.530Z,99207.69
2019-05-05T17:06:21.312Z,99208.23
2019-05-05T17:08:52.839Z,99208.86
2019-05-05T17:11:24.676Z,99204.33
2019-05-05T17:14:03.953Z,99206.96
2019-05-05T17:16:44.209Z,99207.30
2019-05-05T17:19:17.489Z,99205.64
2019-05-05T17:21:53.681Z,99204.90
2019-05-05T17:24:26.449Z,99203.25
2019-05-05T17:26:58.615Z,99216.48
2019-05-05T17:29:30.271Z,99212.17
2019-05-05T17:32:02.121Z,99214.80
2019-05-05T17:34:34.148Z,99222.28
2019-05-05T17:37:06.847Z,99218.96
2019-05-05T17:39:40.471Z,99217.16
2019-05-05T17:42:16.523Z,99210.52
2019-05-05T17:44:50.021Z,99214.98
2019-05-05T17:47:24.460Z,99214.76
2019-05-05T17:49:57.678Z,99212.62
2019-05-05T17:52:44.031Z,99215.48
2019-05-05T17:55:29.043Z,99217.02
2019-05-05T17:58:02.486Z,99217.60
2019-05-05T18:00:35.471Z,99223.34
2019-05-05T18:03:07.189Z,99222.38
2019-05-05T18:05:49.628Z,99221.56
2019-05-05T18:08:39.411Z,99224.84
2019-05-05T18:11:13.901Z,99225.39
2019-05-05T18:13:56.636Z,99218.80
2019-05-05T18:16:29.080Z,99219.91
2019-05-05T18:19:01.724Z,99230.50
2019-05-05T18:21:34.793Z,99229.10
2019-05-05T18:24:06.309Z,99225.23
2019-05-05T18:26:38.065Z,99222.22
2019-05-05T18:29:09.674Z,99227.49
2019-05-05T18:31:41.525Z,99226.75
2019-05-05T18:34:13.496Z,99235.82
2019-05-05T18:36:45.670Z,99228.05
2019-05-05T18:39:17.508Z,99226.88
2019-05-05T18:42:04.370Z,99235.84
2019-05-05T18:44:37.513Z,99228.72
2019-05-05T18:47:14.928Z,99227.41
2019-05-05T18:49:45.534Z,99244.05
2019-05-05T18:52:17.567Z,99250.99
2019-05-05T18:54:49.650Z,99243.30
2019-05-05T18:57:21.325Z,99243.86
2019-05-05T18:59:54.229Z,99243.86
2019-05-05T19:02:34.693Z,99243.19
2019-05-05T19:05:09.582Z,99240.28
2019-05-05T19:07:55.487Z,99241.57
2019-05-05T19:10:24.117Z,99241.14
2019-05-05T19:12:55.947Z,99256.80
2019-05-05T19:15:27.811Z,99246.98
2019-05-05T19:17:59.749Z,99248.30
2019-05-05T19:20:35.923Z,99247.63
2019-05-05T19:23:08.484Z,99245.79
2019-05-05T19:25:40.154Z,99246.06
2019-05-05T19:28:11.702Z,99253.08
2019-05-05T19:30:44.003Z,99255.83
2019-05-05T19:33:15.729Z,99251.06
2019-05-05T19:35:47.498Z,99261.11
2019-05-05T19:38:19.434Z,99263.33
2019-05-05T19:40:51.440Z,99264.73
2019-05-05T19:43:24.556Z,99265.40
2019-05-05T19:45:56.440Z,99259.95
2019-05-05T19:48:28.523Z,99261.69
2019-05-05T19:51:01.693Z,99264.38
2019-05-05T19:53:35.331Z,99263.42
2019-05-05T19:56:06.769Z,99260.81
2019-05-05T19:58:38.686Z,99258.02
2019-05-05T20:01:10.577Z,99267.37
2019-05-05T20:03:44.109Z,99262.66
2019-05-05T20:06:15.963Z,99266.10
2019-05-05T20:08:47.710Z,99263.47
2019-05-05T20:11:19.752Z,99262.78
2019-05-05T20:14:04.668Z,99264.09
2019-05-05T20:16:29.514Z,99256.08
2019-05-05T20:19:01.070Z,99256.17
2019-05-05T20:21:34.614Z,99253.03
2019-05-05T20:24:06.344Z,99255.16
2019-05-05T20:26:39.404Z,99255.78
2019-05-05T20:29:14.287Z,99256.73
2019-05-05T20:31:44.799Z,99258.05
2019-05-05T20:34:18.084Z,99253.37
2019-05-05T20:36:57.187Z,99262.19
2019-05-05T20:39:30.877Z,99248.50
2019-05-05T20:42:03.952Z,99245.34
2019-05-05T20:44:36.578Z,99245.88
2019-05-05T20:47:08.017Z,99245.56
2019-05-05T20:49:40.010Z,99250.09
2019-05-05T20:52:14.028Z,99252.89
2019-05-05T20:54:44.920Z,99250.92
2019-05-05T20:57:16.609Z,99240.82
2019-05-05T20:59:48.471Z,99240.03
2019-05-05T21:02:20.098Z,99239.23
2019-05-05T21:04:53.997Z,99228.70
2019-05-05T21:07:26.572Z,99233.22
2019-05-05T21:09:58.151Z,99229.88
2019-05-05T21:12:41.710Z,99226.34
2019-05-05T21:15:05.634Z,99221.34
2019-05-05T21:17:38.928Z,99217.02
2019-05-05T21:20:10.912Z,99211.50
2019-05-05T21:22:50.229Z,99223.06
2019-05-05T21:25:26.599Z,99217.20
2019-05-05T21:27:59.084Z,99220.60
2019-05-05T21:30:30.927Z,99215.77
2019-05-05T21:33:04.365Z,99215.86
2019-05-05T21:35:36.121Z,99220.50
2019-05-05T21:38:07.747Z,99213.63
2019-05-05T21:40:39.923Z,99216.20
2019-05-05T21:43:12.579Z,99210.06
2019-05-05T21:45:44.619Z,99207.03
2019-05-05T21:48:16.504Z,99209.77
2019-05-05T21:50:54.025Z,99203.18
2019-05-05T21:53:27.601Z,99196.81
2019-05-05T21:56:09.718Z,99196.81
2019-05-05T21:58:46.637Z,99197.25
2019-05-05T22:01:19.154Z,99191.41
2019-05-05T22:03:51.014Z,99185.36
2019-05-05T22:06:24.118Z,99189.23
2019-05-05T22:08:55.961Z,99183.03
2019-05-05T22:11:28.171Z,99176.63
2019-05-05T22:14:00.013Z,99175.35
2019-05-05T22:16:35.279Z,99167.53
2019-05-05T22:19:07.013Z,99175.81
2019-05-05T22:21:40.721Z,99166.41
2019-05-05T22:24:15.962Z,99175.12
2019-05-05T22:26:46.975Z,99171.52
2019-05-05T22:29:19.142Z,99177.43
2019-05-05T22:31:51.247Z,99169.98
2019-05-05T22:34:24.278Z,99172.44
2019-05-05T22:36:56.166Z,99170.75
2019-05-05T22:39:28.111Z,99164.58
2019-05-05T22:42:00.911Z,99159.63
2019-05-05T22:44:33.876Z,99163.97
2019-05-05T22:47:05.654Z,99160.05
2019-05-05T22:49:37.309Z,99159.39
2019-05-05T22:52:09.167Z,99158.55
2019-05-05T22:54:41.336Z,99155.19
2019-05-05T22:57:14.025Z,99158.14
2019-05-05T22:59:46.162Z,99161.92
2019-05-05T23:02:19.395Z,99156.92
2019-05-05T23:04:54.533Z,99146.05
2019-05-05T23:07:28.917Z,99151.84
2019-05-05T23:10:00.560Z,99142.58
2019-05-05T23:12:35.094Z,99139.19
2019-05-05T23:15:08.934Z,99139.09
2019-05-05T23:17:45.074Z,99139.15
2019-05-05T23:20:38.027Z,99136.06
2019-05-05T23:23:11.499Z,99131.95
2019-05-05T23:25:47.689Z,99138.09
2019-05-05T23:28:19.418Z,99133.97
2019-05-05T23:30:54.714Z,99132.47
2019-05-05T23:33:26.364Z,99130.50
2019-05-05T23:35:58.103Z,99130.08
2019-05-05T23:38:29.623Z,99127.16
2019-05-05T23:41:03.699Z,99123.47
2019-05-05T23:43:34.659Z,99116.24
2019-05-05T23:46:06.607Z,99121.49
2019-05-05T23:48:38.394Z,99116.18
2019-05-05T23:51:10.260Z,99116.72
2019-05-05T23:53:44.484Z,99112.07
2019-05-05T23:56:16.067Z,99119.70
2019-05-05T23:58:47.713Z,99115.47
